createdAt,value
2023-01-20T00:01:46.481Z,0.80
2023-01-20T00:04:15.256Z,0.80
2023-01-20T00:06:43.292Z,0.70
2023-01-20T00:09:17.311Z,0.70
2023-01-20T00:11:47.823Z,0.70
2023-01-20T00:14:16.128Z,0.70
2023-01-20T00:16:46.895Z,0.70
2023-01-20T00:19:15.625Z,0.70
2023-01-20T00:21:44.148Z,0.70
2023-01-20T00:24:12.348Z,0.70
2023-01-20T00:26:40.439Z,0.70
2023-01-20T00:29:10.560Z,0.70
2023-01-20T00:31:38.683Z,0.70
2023-01-20T00:34:06.765Z,0.70
2023-01-20T00:36:35.186Z,0.60
2023-01-20T00:39:04.669Z,0.60
2023-01-20T00:41:32.917Z,0.70
2023-01-20T00:44:01.023Z,0.70
2023-01-20T00:46:30.527Z,0.70
2023-01-20T00:48:58.730Z,0.70
2023-01-20T00:51:26.779Z,0.70
2023-01-20T00:53:54.826Z,0.70
2023-01-20T00:56:22.843Z,0.70
2023-01-20T00:58:50.885Z,0.70
2023-01-20T01:01:18.993Z,0.60
2023-01-20T01:03:48.597Z,0.60
2023-01-20T01:06:18.852Z,0.70
2023-01-20T01:08:47.123Z,0.60
2023-01-20T01:11:15.563Z,0.60
2023-01-20T01:13:44.026Z,0.60
2023-01-20T01:16:15.404Z,0.60
2023-01-20T01:18:44.513Z,0.60
2023-01-20T01:21:17.690Z,0.60
2023-01-20T01:23:45.901Z,0.60
2023-01-20T01:26:14.221Z,0.60
2023-01-20T01:28:42.592Z,0.60
2023-01-20T01:31:11.691Z,0.50
2023-01-20T01:33:41.123Z,0.50
2023-01-20T01:36:16.558Z,0.50
2023-01-20T01:38:45.435Z,0.50
2023-01-20T01:41:26.425Z,0.50
2023-01-20T01:44:08.940Z,0.50
2023-01-20T01:46:38.027Z,0.40
2023-01-20T01:49:15.194Z,0.50
2023-01-20T01:51:52.398Z,0.40
2023-01-20T01:54:26.131Z,0.50
2023-01-20T01:56:54.624Z,0.40
2023-01-20T01:59:22.978Z,0.40
2023-01-20T02:01:54.133Z,0.40
2023-01-20T02:04:25.713Z,0.40
2023-01-20T02:07:00.133Z,0.40
2023-01-20T02:09:29.798Z,0.40
2023-01-20T02:12:02.655Z,0.40
2023-01-20T02:14:36.108Z,0.40
2023-01-20T02:17:21.415Z,0.40
2023-01-20T02:20:37.859Z,0.40
2023-01-20T02:23:22.905Z,0.40
2023-01-20T02:26:48.271Z,0.40
2023-01-20T02:30:11.723Z,0.30
2023-01-20T02:32:53.902Z,0.30
2023-01-20T02:35:31.567Z,0.30
2023-01-20T02:38:14.737Z,0.30
2023-01-20T02:40:53.795Z,0.30
2023-01-20T02:43:32.743Z,0.30
2023-01-20T02:46:24.889Z,0.30
2023-01-20T02:49:03.070Z,0.30
2023-01-20T02:51:39.087Z,0.30
2023-01-20T02:54:13.270Z,0.20
2023-01-20T02:56:41.954Z,0.20
2023-01-20T02:59:14.605Z,0.20
2023-01-20T03:01:49.272Z,0.20
2023-01-20T03:04:26.126Z,0.30
2023-01-20T03:06:59.503Z,0.20
2023-01-20T03:09:33.730Z,0.20
2023-01-20T03:12:11.092Z,0.20
2023-01-20T03:14:39.423Z,0.20
2023-01-20T03:17:07.573Z,0.20
2023-01-20T03:19:37.719Z,0.20
2023-01-20T03:22:05.906Z,0.20
2023-01-20T03:24:38.548Z,0.10
2023-01-20T03:27:07.757Z,0.10
2023-01-20T03:29:36.045Z,0.10
2023-01-20T03:32:09.162Z,0.10
2023-01-20T03:34:43.009Z,0.20
2023-01-20T03:37:13.486Z,0.20
2023-01-20T03:39:41.893Z,0.20
2023-01-20T03:42:17.373Z,0.20
2023-01-20T03:45:01.810Z,0.10
2023-01-20T03:47:52.168Z,0.20
2023-01-20T03:50:37.346Z,0.20
2023-01-20T03:53:19.527Z,0.20
2023-01-20T03:55:54.235Z,0.20
2023-01-20T03:58:28.666Z,0.20
2023-01-20T04:00:58.582Z,0.20
2023-01-20T04:03:30.680Z,0.20
2023-01-20T04:06:06.356Z,0.10
2023-01-20T04:08:40.393Z,0.10
2023-01-20T04:11:10.073Z,0.10
2023-01-20T04:13:38.516Z,0.10
2023-01-20T04:16:14.424Z,0.10
2023-01-20T04:18:44.008Z,0.20
2023-01-20T04:21:20.862Z,0.20
2023-01-20T04:23:56.892Z,0.10
2023-01-20T04:26:24.972Z,0.10
2023-01-20T04:28:56.399Z,0.10
2023-01-20T04:31:30.518Z,0.00
2023-01-20T04:33:59.293Z,0.00
2023-01-20T04:36:29.221Z,-0.10
2023-01-20T04:38:57.512Z,0.00
2023-01-20T04:41:25.582Z,-0.10
2023-01-20T04:43:53.627Z,-0.10
2023-01-20T04:46:21.809Z,0.00
2023-01-20T04:48:49.904Z,0.00
2023-01-20T04:51:17.965Z,0.00
2023-01-20T04:53:47.331Z,0.00
2023-01-20T04:56:16.932Z,0.00
2023-01-20T04:58:45.188Z,0.00
2023-01-20T05:01:13.340Z,0.00
2023-01-20T05:03:41.617Z,0.00
2023-01-20T05:06:11.516Z,0.00
2023-01-20T05:08:39.679Z,0.00
2023-01-20T05:11:09.254Z,0.00
2023-01-20T05:13:39.304Z,0.00
2023-01-20T05:16:08.459Z,0.00
2023-01-20T05:18:37.051Z,0.00
2023-01-20T05:21:07.890Z,0.00
2023-01-20T05:23:36.153Z,-0.10
2023-01-20T05:26:04.422Z,-0.10
2023-01-20T05:28:33.989Z,-0.20
2023-01-20T05:31:02.060Z,-0.10
2023-01-20T05:33:30.167Z,-0.20
2023-01-20T05:35:58.179Z,-0.20
2023-01-20T05:38:26.278Z,-0.30
2023-01-20T05:41:01.206Z,-0.30
2023-01-20T05:43:29.474Z,-0.40
2023-01-20T05:45:59.016Z,-0.40
2023-01-20T05:48:27.289Z,-0.30
2023-01-20T05:50:55.467Z,-0.30
2023-01-20T05:53:24.021Z,-0.30
2023-01-20T05:56:00.030Z,-0.30
2023-01-20T05:58:28.751Z,-0.30
2023-01-20T06:01:05.245Z,-0.40
2023-01-20T06:03:33.352Z,-0.40
2023-01-20T06:06:02.062Z,-0.60
2023-01-20T06:08:30.479Z,-0.60
2023-01-20T06:10:58.563Z,-0.50
2023-01-20T06:13:26.625Z,-0.40
2023-01-20T06:15:56.223Z,-0.50
2023-01-20T06:18:26.006Z,-0.40
2023-01-20T06:20:58.289Z,-0.50
2023-01-20T06:23:26.744Z,-0.60
2023-01-20T06:26:01.104Z,-0.60
2023-01-20T06:28:29.902Z,-0.70
2023-01-20T06:31:03.110Z,-0.80
2023-01-20T06:33:34.076Z,-0.80
2023-01-20T06:36:02.417Z,-0.80
2023-01-20T06:38:33.301Z,-0.80
2023-01-20T06:41:03.851Z,-0.80
2023-01-20T06:43:33.892Z,-0.80
2023-01-20T06:46:03.102Z,-0.70
2023-01-20T06:48:33.508Z,-0.70
2023-01-20T06:51:03.041Z,-0.80
2023-01-20T06:53:31.183Z,-0.80
2023-01-20T06:56:01.502Z,-0.70
2023-01-20T06:58:31.655Z,-0.70
2023-01-20T07:01:06.626Z,-0.80
2023-01-20T07:03:36.561Z,-0.80
2023-01-20T07:06:15.150Z,-0.90
2023-01-20T07:08:45.030Z,-0.90
2023-01-20T07:11:14.052Z,-0.90
2023-01-20T07:13:42.122Z,-0.90
2023-01-20T07:16:13.726Z,-0.90
2023-01-20T07:18:48.404Z,-0.90
2023-01-20T07:21:17.056Z,-0.90
2023-01-20T07:23:45.207Z,-0.90
2023-01-20T07:26:16.111Z,-0.80
2023-01-20T07:28:44.670Z,-0.80
2023-01-20T07:31:15.053Z,-0.80
2023-01-20T07:33:45.189Z,-0.80
2023-01-20T07:36:15.930Z,-0.80
2023-01-20T07:38:47.373Z,-0.70
2023-01-20T07:41:16.642Z,-0.70
2023-01-20T07:43:45.380Z,-0.60
2023-01-20T07:46:15.243Z,-0.60
2023-01-20T07:48:44.714Z,-0.60
2023-01-20T07:51:15.693Z,-0.70
2023-01-20T07:53:46.713Z,-0.70
2023-01-20T07:56:17.387Z,-0.70
2023-01-20T07:58:46.291Z,-0.60
2023-01-20T08:01:17.886Z,-0.60
2023-01-20T08:03:47.942Z,-0.60
2023-01-20T08:06:19.459Z,-0.60
2023-01-20T08:08:47.996Z,-0.60
2023-01-20T08:11:19.935Z,-0.60
2023-01-20T08:13:48.503Z,-0.50
2023-01-20T08:16:19.322Z,-0.50
2023-01-20T08:18:49.679Z,-0.40
2023-01-20T08:21:24.178Z,-0.40
2023-01-20T08:23:52.385Z,-0.40
2023-01-20T08:26:20.616Z,-0.30
2023-01-20T08:28:49.134Z,-0.30
2023-01-20T08:31:20.507Z,-0.30
2023-01-20T08:33:54.005Z,-0.30
2023-01-20T08:36:25.978Z,-0.20
2023-01-20T08:38:55.605Z,-0.30
2023-01-20T08:41:27.898Z,-0.30
2023-01-20T08:43:58.738Z,-0.30
2023-01-20T08:46:27.068Z,-0.20
2023-01-20T08:48:56.794Z,-0.10
2023-01-20T08:51:30.743Z,-0.10
2023-01-20T08:53:59.080Z,0.00
2023-01-20T08:56:27.765Z,0.00
2023-01-20T08:58:57.049Z,0.00
2023-01-20T09:01:28.174Z,0.00
2023-01-20T09:04:05.879Z,0.00
2023-01-20T09:06:41.545Z,0.10
2023-01-20T09:09:09.790Z,0.10
2023-01-20T09:11:39.693Z,0.10
2023-01-20T09:14:07.861Z,0.10
2023-01-20T09:16:35.877Z,0.10
2023-01-20T09:19:05.362Z,0.10
2023-01-20T09:21:33.476Z,0.20
2023-01-20T09:24:01.545Z,0.30
2023-01-20T09:26:38.629Z,0.20
2023-01-20T09:29:10.571Z,0.30
2023-01-20T09:31:40.227Z,0.30
2023-01-20T09:34:09.744Z,0.30
2023-01-20T09:36:38.355Z,0.30
2023-01-20T09:39:23.825Z,0.30
2023-01-20T09:42:09.637Z,0.40
2023-01-20T09:44:50.552Z,0.40
2023-01-20T09:47:31.484Z,0.40
2023-01-20T09:50:56.365Z,0.40
2023-01-20T09:53:49.600Z,0.50
2023-01-20T09:56:22.273Z,0.50
2023-01-20T09:58:58.752Z,0.60
2023-01-20T10:01:37.414Z,0.50
2023-01-20T10:04:16.065Z,0.60
2023-01-20T10:06:50.864Z,0.60
2023-01-20T10:09:33.571Z,0.70
2023-01-20T10:12:10.503Z,0.70
2023-01-20T10:14:45.904Z,0.70
2023-01-20T10:17:22.216Z,0.60
2023-01-20T10:19:59.828Z,0.70
2023-01-20T10:22:38.704Z,0.70
2023-01-20T10:25:18.484Z,0.70
2023-01-20T10:27:55.075Z,0.70
2023-01-20T10:30:31.168Z,0.80
2023-01-20T10:33:07.740Z,0.80
2023-01-20T10:35:40.415Z,0.80
2023-01-20T10:38:20.513Z,0.80
2023-01-20T10:40:58.183Z,0.80
2023-01-20T10:43:27.430Z,0.90
2023-01-20T10:46:17.866Z,0.90
2023-01-20T10:49:12.273Z,1.00
2023-01-20T10:51:51.037Z,1.00
2023-01-20T10:54:38.385Z,1.00
2023-01-20T10:57:13.454Z,1.00
2023-01-20T10:59:46.792Z,1.00
2023-01-20T11:02:21.121Z,1.00
2023-01-20T11:04:58.742Z,1.00
2023-01-20T11:07:28.319Z,1.00
2023-01-20T11:09:57.758Z,1.00
2023-01-20T11:12:33.284Z,1.00
2023-01-20T11:15:02.303Z,1.00
2023-01-20T11:17:30.408Z,1.10
2023-01-20T11:20:06.558Z,1.10
2023-01-20T11:22:38.536Z,1.10
2023-01-20T11:25:25.830Z,1.20
2023-01-20T11:27:54.833Z,1.20
2023-01-20T11:30:30.345Z,1.20
2023-01-20T11:33:19.303Z,1.30
2023-01-20T11:36:05.600Z,1.40
2023-01-20T11:38:44.668Z,1.50
2023-01-20T11:41:22.783Z,1.60
2023-01-20T11:43:52.826Z,1.70
2023-01-20T11:46:30.289Z,1.80
2023-01-20T11:49:17.463Z,1.70
2023-01-20T11:51:53.746Z,1.80
2023-01-20T11:54:24.895Z,1.90
2023-01-20T11:57:00.556Z,2.10
2023-01-20T11:59:32.403Z,2.10
2023-01-20T12:02:19.567Z,2.20
2023-01-20T12:05:05.242Z,2.30
2023-01-20T12:07:38.549Z,2.40
2023-01-20T12:10:18.654Z,2.50
2023-01-20T12:12:55.083Z,2.50
2023-01-20T12:15:27.347Z,2.50
2023-01-20T12:18:00.732Z,2.60
2023-01-20T12:20:54.160Z,2.60
2023-01-20T12:23:45.721Z,2.60
2023-01-20T12:26:16.283Z,2.60
2023-01-20T12:28:55.347Z,2.60
2023-01-20T12:31:25.000Z,2.60
2023-01-20T12:34:00.133Z,2.50
2023-01-20T12:37:07.644Z,2.40
2023-01-20T12:40:04.871Z,2.40
2023-01-20T12:43:15.609Z,2.40
2023-01-20T12:46:17.993Z,2.40
2023-01-20T12:49:08.419Z,2.30
2023-01-20T12:51:57.179Z,2.20
2023-01-20T12:54:50.847Z,2.40
2023-01-20T12:57:36.663Z,2.60
2023-01-20T13:00:41.159Z,2.90
2023-01-20T13:03:56.025Z,3.10
2023-01-20T13:06:55.255Z,3.10
2023-01-20T13:09:50.882Z,3.40
2023-01-20T13:12:38.180Z,3.50
2023-01-20T13:15:20.012Z,3.50
2023-01-20T13:18:14.765Z,3.40
2023-01-20T13:20:47.181Z,3.50
2023-01-20T13:23:19.750Z,3.60
2023-01-20T13:25:49.169Z,3.70
2023-01-20T13:28:20.276Z,3.70
2023-01-20T13:30:53.903Z,3.60
2023-01-20T13:33:38.255Z,3.60
2023-01-20T13:36:20.123Z,3.50
2023-01-20T13:38:50.784Z,3.40
2023-01-20T13:41:53.482Z,3.30
2023-01-20T13:44:39.918Z,3.20
2023-01-20T13:47:10.807Z,3.20
2023-01-20T13:49:53.544Z,3.10
2023-01-20T13:53:19.823Z,3.10
2023-01-20T13:56:00.841Z,3.00
2023-01-20T13:58:32.409Z,2.90
2023-01-20T14:01:03.183Z,2.90
2023-01-20T14:03:35.092Z,2.90
2023-01-20T14:06:06.965Z,2.80
2023-01-20T14:08:42.014Z,2.80
2023-01-20T14:11:17.774Z,2.80
2023-01-20T14:13:55.070Z,2.80
2023-01-20T14:16:28.214Z,2.70
2023-01-20T14:18:59.987Z,2.60
2023-01-20T14:21:31.720Z,2.70
2023-01-20T14:23:59.842Z,2.60
2023-01-20T14:26:32.097Z,2.60
2023-01-20T14:29:03.095Z,2.60
2023-01-20T14:31:40.453Z,2.60
2023-01-20T14:34:27.864Z,2.60
2023-01-20T14:37:00.162Z,2.60
2023-01-20T14:39:31.130Z,2.60
2023-01-20T14:42:02.773Z,2.60
2023-01-20T14:44:33.593Z,2.60
2023-01-20T14:47:04.520Z,2.50
2023-01-20T14:49:39.286Z,2.50
2023-01-20T14:52:09.282Z,2.50
2023-01-20T14:54:45.171Z,2.50
2023-01-20T14:57:29.124Z,2.50
2023-01-20T15:00:21.170Z,2.50
2023-01-20T15:03:09.537Z,2.50
2023-01-20T15:05:41.839Z,2.40
2023-01-20T15:08:25.453Z,2.50
2023-01-20T15:11:28.240Z,2.50
2023-01-20T15:14:14.592Z,2.40
2023-01-20T15:16:50.332Z,2.40
2023-01-20T15:19:46.604Z,2.40
2023-01-20T15:22:24.114Z,2.30
2023-01-20T15:24:52.943Z,2.30
2023-01-20T15:27:30.387Z,2.30
2023-01-20T15:30:17.200Z,2.30
2023-01-20T15:32:45.511Z,2.30
2023-01-20T15:35:15.800Z,2.20
2023-01-20T15:37:45.161Z,2.20
2023-01-20T15:40:18.757Z,2.10
2023-01-20T15:42:47.816Z,2.10
2023-01-20T15:45:19.029Z,2.00
2023-01-20T15:47:49.051Z,2.00
2023-01-20T15:50:22.429Z,2.00
2023-01-20T15:52:50.922Z,1.90
2023-01-20T15:55:20.540Z,1.90
2023-01-20T15:57:53.221Z,1.80
2023-01-20T16:00:24.918Z,1.80
2023-01-20T16:02:53.090Z,1.90
2023-01-20T16:05:22.059Z,1.80
2023-01-20T16:07:50.282Z,1.80
2023-01-20T16:10:20.268Z,1.80
2023-01-20T16:12:48.485Z,1.80
2023-01-20T16:15:18.976Z,1.80
2023-01-20T16:17:50.860Z,1.70
2023-01-20T16:20:24.990Z,1.70
2023-01-20T16:22:54.036Z,1.80
2023-01-20T16:25:22.374Z,1.70
2023-01-20T16:27:50.688Z,1.80
2023-01-20T16:30:24.527Z,1.80
2023-01-20T16:32:54.539Z,1.70
2023-01-20T16:35:23.619Z,1.80
2023-01-20T16:37:52.714Z,1.90
2023-01-20T16:40:24.478Z,1.80
2023-01-20T16:42:56.067Z,1.80
2023-01-20T16:45:28.795Z,1.80
2023-01-20T16:47:58.317Z,1.90
2023-01-20T16:50:28.247Z,1.90
2023-01-20T16:52:56.671Z,1.90
2023-01-20T16:55:25.222Z,1.90
2023-01-20T16:57:53.252Z,1.80
2023-01-20T17:00:22.782Z,1.80
2023-01-20T17:02:52.444Z,1.80
2023-01-20T17:05:26.095Z,1.80
2023-01-20T17:07:56.771Z,1.80
2023-01-20T17:10:26.960Z,1.80
2023-01-20T17:12:56.041Z,1.80
2023-01-20T17:15:25.635Z,1.80
2023-01-20T17:17:57.880Z,1.80
2023-01-20T17:20:28.421Z,1.80
2023-01-20T17:22:56.695Z,1.80
2023-01-20T17:25:25.755Z,1.80
2023-01-20T17:27:53.891Z,1.80
2023-01-20T17:30:23.979Z,1.90
2023-01-20T17:32:54.042Z,1.80
2023-01-20T17:35:22.059Z,1.80
2023-01-20T17:37:51.531Z,1.80
2023-01-20T17:40:19.700Z,1.80
2023-01-20T17:42:47.741Z,1.80
2023-01-20T17:45:15.942Z,1.90
2023-01-20T17:47:44.010Z,1.90
2023-01-20T17:50:12.716Z,1.80
2023-01-20T17:52:40.872Z,1.80
2023-01-20T17:55:11.753Z,1.70
2023-01-20T17:57:39.772Z,1.70
2023-01-20T18:00:10.114Z,1.70
2023-01-20T18:02:38.216Z,1.60
2023-01-20T18:05:07.306Z,1.60
2023-01-20T18:07:35.381Z,1.60
2023-01-20T18:10:03.464Z,1.60
2023-01-20T18:12:32.919Z,1.60
2023-01-20T18:15:00.963Z,1.60
2023-01-20T18:17:34.348Z,1.60
2023-01-20T18:20:02.555Z,1.60
2023-01-20T18:22:30.615Z,1.60
2023-01-20T18:24:58.671Z,1.70
2023-01-20T18:27:26.735Z,1.60
2023-01-20T18:29:56.120Z,1.60
2023-01-20T18:32:24.170Z,1.60
2023-01-20T18:34:52.245Z,1.60
2023-01-20T18:37:20.293Z,1.60
2023-01-20T18:39:48.369Z,1.60
2023-01-20T18:42:16.436Z,1.60
2023-01-20T18:44:45.096Z,1.60
2023-01-20T18:47:14.548Z,1.60
2023-01-20T18:49:42.931Z,1.60
2023-01-20T18:52:11.405Z,1.60
2023-01-20T18:54:39.465Z,1.60
2023-01-20T18:57:09.131Z,1.60
2023-01-20T18:59:37.345Z,1.60
2023-01-20T19:02:05.474Z,1.60
2023-01-20T19:04:35.630Z,1.50
2023-01-20T19:07:03.669Z,1.60
2023-01-20T19:09:31.775Z,1.50
2023-01-20T19:11:59.816Z,1.50
2023-01-20T19:14:27.878Z,1.50
2023-01-20T19:16:56.342Z,1.50
2023-01-20T19:19:24.680Z,1.50
2023-01-20T19:21:54.157Z,1.50
2023-01-20T19:24:27.139Z,1.50
2023-01-20T19:26:55.416Z,1.40
2023-01-20T19:29:23.521Z,1.40
2023-01-20T19:31:52.320Z,1.40
2023-01-20T19:34:20.414Z,1.40
2023-01-20T19:36:48.495Z,1.40
2023-01-20T19:39:18.305Z,1.40
2023-01-20T19:41:46.425Z,1.40
2023-01-20T19:44:14.499Z,1.40
2023-01-20T19:46:42.759Z,1.40
2023-01-20T19:49:12.104Z,1.40
2023-01-20T19:51:41.019Z,1.40
2023-01-20T19:54:11.851Z,1.30
2023-01-20T19:56:41.342Z,1.30
2023-01-20T19:59:13.012Z,1.20
2023-01-20T20:01:41.422Z,1.20
2023-01-20T20:04:12.753Z,1.20
2023-01-20T20:06:47.761Z,1.10
2023-01-20T20:09:19.359Z,1.20
2023-01-20T20:11:49.993Z,1.10
2023-01-20T20:14:20.954Z,1.10
2023-01-20T20:16:49.754Z,1.10
2023-01-20T20:19:20.092Z,1.10
2023-01-20T20:21:48.544Z,1.00
2023-01-20T20:24:19.374Z,0.90
2023-01-20T20:26:49.219Z,0.90
2023-01-20T20:29:19.569Z,0.90
2023-01-20T20:31:48.141Z,0.80
2023-01-20T20:34:19.113Z,0.70
2023-01-20T20:36:47.496Z,0.70
2023-01-20T20:39:19.107Z,0.70
2023-01-20T20:41:48.798Z,0.70
2023-01-20T20:44:17.115Z,0.70
2023-01-20T20:46:45.306Z,0.70
2023-01-20T20:49:16.197Z,0.70
2023-01-20T20:51:44.858Z,0.70
2023-01-20T20:54:16.678Z,0.60
2023-01-20T20:56:45.186Z,0.70
2023-01-20T20:59:15.256Z,0.70
2023-01-20T21:01:43.384Z,0.50
2023-01-20T21:04:11.596Z,0.50
2023-01-20T21:06:39.771Z,0.50
2023-01-20T21:09:08.345Z,0.60
2023-01-20T21:11:38.469Z,0.50
2023-01-20T21:14:07.209Z,0.50
2023-01-20T21:16:37.866Z,0.50
2023-01-20T21:19:06.075Z,0.50
2023-01-20T21:21:34.167Z,0.40
2023-01-20T21:24:02.263Z,0.50
2023-01-20T21:26:31.012Z,0.40
2023-01-20T21:29:02.149Z,0.30
2023-01-20T21:31:31.658Z,0.40
2023-01-20T21:34:02.034Z,0.30
2023-01-20T21:36:33.888Z,0.30
2023-01-20T21:39:01.988Z,0.30
2023-01-20T21:41:30.834Z,0.30
2023-01-20T21:44:16.254Z,0.40
2023-01-20T21:46:44.394Z,0.30
2023-01-20T21:49:31.287Z,0.30
2023-01-20T21:52:16.704Z,0.30
2023-01-20T21:54:45.620Z,0.30
2023-01-20T21:57:14.715Z,0.30
2023-01-20T21:59:45.575Z,0.40
2023-01-20T22:02:15.322Z,0.40
2023-01-20T22:04:46.111Z,0.30
2023-01-20T22:07:15.573Z,0.20
2023-01-20T22:09:43.678Z,0.20
2023-01-20T22:12:12.766Z,0.20
2023-01-20T22:14:41.743Z,0.20
2023-01-20T22:17:12.620Z,0.10
2023-01-20T22:19:40.946Z,0.00
2023-01-20T22:22:10.692Z,0.00
2023-01-20T22:24:38.808Z,0.00
2023-01-20T22:27:07.110Z,0.10
2023-01-20T22:29:35.192Z,0.00
2023-01-20T22:32:04.100Z,-0.10
2023-01-20T22:34:32.563Z,0.00
2023-01-20T22:37:00.681Z,0.00
2023-01-20T22:39:30.201Z,0.00
2023-01-20T22:41:58.451Z,0.00
2023-01-20T22:44:26.545Z,0.00
2023-01-20T22:46:54.647Z,0.10
2023-01-20T22:49:22.702Z,0.00
2023-01-20T22:51:52.082Z,-0.10
2023-01-20T22:54:20.384Z,-0.10
2023-01-20T22:56:49.822Z,-0.10
2023-01-20T22:59:18.204Z,-0.10
2023-01-20T23:01:46.674Z,0.00
2023-01-20T23:04:15.476Z,-0.10
2023-01-20T23:06:43.685Z,-0.10
2023-01-20T23:09:14.296Z,-0.20
2023-01-20T23:11:42.651Z,-0.20
2023-01-20T23:14:13.498Z,-0.20
2023-01-20T23:16:43.513Z,-0.10
2023-01-20T23:19:12.663Z,-0.20
2023-01-20T23:21:40.749Z,-0.30
2023-01-20T23:24:09.473Z,-0.40
2023-01-20T23:26:37.577Z,-0.30
2023-01-20T23:29:05.627Z,-0.30
2023-01-20T23:31:35.202Z,-0.30
2023-01-20T23:34:03.471Z,-0.20
2023-01-20T23:36:31.543Z,-0.30
2023-01-20T23:38:59.601Z,-0.40
2023-01-20T23:41:27.854Z,-0.40
2023-01-20T23:43:55.970Z,-0.30
2023-01-20T23:46:24.198Z,-0.30
2023-01-20T23:48:53.885Z,-0.30
2023-01-20T23:51:22.144Z,-0.30
2023-01-20T23:53:50.497Z,-0.40
2023-01-20T23:56:21.588Z,-0.40
2023-01-20T23:58:50.562Z,-0.40
